sensor_id;sensor_type;location;lat;lon;timestamp;pressure;altitude;pressure_sealevel;temperature;humidity
8049;BME280;20935;42.660;23.342;2023-04-24T00:01:10;65502.94;;;-143.54;100.00
8049;BME280;20935;42.660;23.342;2023-04-24T00:03:56;65502.94;;;-143.54;100.00
8049;BME280;20935;42.660;23.342;2023-04-24T00:06:43;65502.94;;;-143.54;100.00
8049;BME280;20935;42.660;23.342;2023-04-24T00:09:29;65502.94;;;-143.54;100.00
8049;BME280;20935;42.660;23.342;2023-04-24T00:12:15;65502.94;;;-143.54;100.00
8049;BME280;20935;42.660;23.342;2023-04-24T00:15:01;65502.94;;;-143.54;100.00
8049;BME280;20935;42.660;23.342;2023-04-24T00:17:46;65502.94;;;-143.54;100.00
8049;BME280;20935;42.660;23.342;2023-04-24T00:20:32;65502.94;;;-143.54;100.00
8049;BME280;20935;42.660;23.342;2023-04-24T00:23:17;65502.94;;;-143.54;100.00
8049;BME280;20935;42.660;23.342;2023-04-24T00:26:04;65502.94;;;-143.54;100.00
8049;BME280;20935;42.660;23.342;2023-04-24T00:28:49;65502.94;;;-143.54;100.00
8049;BME280;20935;42.660;23.342;2023-04-24T00:31:35;65502.94;;;-143.54;100.00
8049;BME280;20935;42.660;23.342;2023-04-24T00:34:20;65502.94;;;-143.54;100.00
8049;BME280;20935;42.660;23.342;2023-04-24T00:37:05;65502.94;;;-143.54;100.00
8049;BME280;20935;42.660;23.342;2023-04-24T00:39:51;65502.94;;;-143.54;100.00
8049;BME280;20935;42.660;23.342;2023-04-24T00:42:39;65502.94;;;-143.54;100.00
8049;BME280;20935;42.660;23.342;2023-04-24T00:45:25;65502.94;;;-143.54;100.00
8049;BME280;20935;42.660;23.342;2023-04-24T00:48:11;65502.94;;;-143.54;100.00
8049;BME280;20935;42.660;23.342;2023-04-24T00:50:57;65502.94;;;-143.54;100.00
8049;BME280;20935;42.660;23.342;2023-04-24T00:53:42;65502.94;;;-143.54;100.00
8049;BME280;20935;42.660;23.342;2023-04-24T00:56:28;65502.94;;;-143.54;100.00
8049;BME280;20935;42.660;23.342;2023-04-24T00:59:16;65502.94;;;-143.54;100.00
8049;BME280;20935;42.660;23.342;2023-04-24T01:02:01;65502.94;;;-143.54;100.00
8049;BME280;20935;42.660;23.342;2023-04-24T01:04:48;65502.94;;;-143.54;100.00
8049;BME280;20935;42.660;23.342;2023-04-24T01:07:34;65502.94;;;-143.54;100.00
8049;BME280;20935;42.660;23.342;2023-04-24T01:10:20;65502.94;;;-143.54;100.00
8049;BME280;20935;42.660;23.342;2023-04-24T01:13:07;65502.94;;;-143.54;100.00
8049;BME280;20935;42.660;23.342;2023-04-24T01:15:54;65502.94;;;-143.54;100.00
8049;BME280;20935;42.660;23.342;2023-04-24T01:18:40;65502.94;;;-143.54;100.00
8049;BME280;20935;42.660;23.342;2023-04-24T01:21:26;65502.94;;;-143.54;100.00
8049;BME280;20935;42.660;23.342;2023-04-24T01:24:14;65502.94;;;-143.54;100.00
8049;BME280;20935;42.660;23.342;2023-04-24T01:26:59;65502.94;;;-143.54;100.00
8049;BME280;20935;42.660;23.342;2023-04-24T01:29:45;65502.94;;;-143.54;100.00
8049;BME280;20935;42.660;23.342;2023-04-24T01:32:31;65502.94;;;-143.54;100.00
8049;BME280;20935;42.660;23.342;2023-04-24T01:35:17;65502.94;;;-143.54;100.00
8049;BME280;20935;42.660;23.342;2023-04-24T01:38:03;65502.94;;;-143.54;100.00
8049;BME280;20935;42.660;23.342;2023-04-24T01:40:49;65502.94;;;-143.54;100.00
8049;BME280;20935;42.660;23.342;2023-04-24T01:43:36;65502.94;;;-143.54;100.00
8049;BME280;20935;42.660;23.342;2023-04-24T01:46:21;65502.94;;;-143.54;100.00
8049;BME280;20935;42.660;23.342;2023-04-24T01:49:08;65502.94;;;-143.54;100.00
8049;BME280;20935;42.660;23.342;2023-04-24T01:51:53;65502.94;;;-143.54;100.00
8049;BME280;20935;42.660;23.342;2023-04-24T01:54:38;65502.94;;;-143.54;100.00
8049;BME280;20935;42.660;23.342;2023-04-24T01:57:25;65502.94;;;-143.54;100.00
8049;BME280;20935;42.660;23.342;2023-04-24T02:00:11;65502.94;;;-143.54;100.00
8049;BME280;20935;42.660;23.342;2023-04-24T02:02:57;65502.94;;;-143.54;100.00
8049;BME280;20935;42.660;23.342;2023-04-24T02:05:43;65502.94;;;-143.54;100.00
8049;BME280;20935;42.660;23.342;2023-04-24T02:08:28;65502.94;;;-143.54;100.00
8049;BME280;20935;42.660;23.342;2023-04-24T02:11:14;65502.94;;;-143.54;100.00
8049;BME280;20935;42.660;23.342;2023-04-24T02:14:01;65502.94;;;-143.54;100.00
8049;BME280;20935;42.660;23.342;2023-04-24T02:16:47;65502.94;;;-143.54;100.00
8049;BME280;20935;42.660;23.342;2023-04-24T02:19:32;65502.94;;;-143.54;100.00
8049;BME280;20935;42.660;23.342;2023-04-24T02:22:18;65502.94;;;-143.54;100.00
8049;BME280;20935;42.660;23.342;2023-04-24T02:25:04;65502.94;;;-143.54;100.00
8049;BME280;20935;42.660;23.342;2023-04-24T02:27:50;65502.94;;;-143.54;100.00
8049;BME280;20935;42.660;23.342;2023-04-24T02:30:37;65502.94;;;-143.54;100.00
8049;BME280;20935;42.660;23.342;2023-04-24T02:33:22;65502.94;;;-143.54;100.00
8049;BME280;20935;42.660;23.342;2023-04-24T02:36:07;65502.94;;;-143.54;100.00
8049;BME280;20935;42.660;23.342;2023-04-24T02:38:53;65502.94;;;-143.54;100.00
8049;BME280;20935;42.660;23.342;2023-04-24T02:41:38;65502.94;;;-143.54;100.00
8049;BME280;20935;42.660;23.342;2023-04-24T02:44:24;65502.94;;;-143.54;100.00
8049;BME280;20935;42.660;23.342;2023-04-24T02:47:11;65502.94;;;-143.54;100.00
8049;BME280;20935;42.660;23.342;2023-04-24T02:49:56;65502.94;;;-143.54;100.00
8049;BME280;20935;42.660;23.342;2023-04-24T02:52:41;65502.94;;;-143.54;100.00
8049;BME280;20935;42.660;23.342;2023-04-24T02:55:27;65502.94;;;-143.54;100.00
8049;BME280;20935;42.660;23.342;2023-04-24T02:58:12;65502.94;;;-143.54;100.00
8049;BME280;20935;42.660;23.342;2023-04-24T03:00:58;65502.94;;;-143.54;100.00
8049;BME280;20935;42.660;23.342;2023-04-24T03:03:44;65502.94;;;-143.54;100.00
8049;BME280;20935;42.660;23.342;2023-04-24T03:06:30;65502.94;;;-143.54;100.00
8049;BME280;20935;42.660;23.342;2023-04-24T03:09:16;65502.94;;;-143.54;100.00
8049;BME280;20935;42.660;23.342;2023-04-24T03:12:02;65502.94;;;-143.54;100.00
8049;BME280;20935;42.660;23.342;2023-04-24T03:14:47;65502.94;;;-143.54;100.00
8049;BME280;20935;42.660;23.342;2023-04-24T03:17:33;65502.94;;;-143.54;100.00
8049;BME280;20935;42.660;23.342;2023-04-24T03:20:20;65502.94;;;-143.54;100.00
8049;BME280;20935;42.660;23.342;2023-04-24T03:23:06;65502.94;;;-143.54;100.00
8049;BME280;20935;42.660;23.342;2023-04-24T03:25:52;65502.94;;;-143.54;100.00
8049;BME280;20935;42.660;23.342;2023-04-24T03:28:38;65502.94;;;-143.54;100.00
8049;BME280;20935;42.660;23.342;2023-04-24T03:31:25;65502.94;;;-143.54;100.00
8049;BME280;20935;42.660;23.342;2023-04-24T03:34:10;65502.94;;;-143.54;100.00
8049;BME280;20935;42.660;23.342;2023-04-24T03:36:57;65502.94;;;-143.54;100.00
8049;BME280;20935;42.660;23.342;2023-04-24T03:39:42;65502.94;;;-143.54;100.00
8049;BME280;20935;42.660;23.342;2023-04-24T03:42:28;65502.94;;;-143.54;100.00
8049;BME280;20935;42.660;23.342;2023-04-24T03:45:13;65502.94;;;-143.54;100.00
8049;BME280;20935;42.660;23.342;2023-04-24T03:47:58;65502.94;;;-143.54;100.00
8049;BME280;20935;42.660;23.342;2023-04-24T03:50:44;65502.94;;;-143.54;100.00
8049;BME280;20935;42.660;23.342;2023-04-24T03:53:31;65502.94;;;-143.54;100.00
8049;BME280;20935;42.660;23.342;2023-04-24T03:56:16;65502.94;;;-143.54;100.00
8049;BME280;20935;42.660;23.342;2023-04-24T03:59:02;65502.94;;;-143.54;100.00
8049;BME280;20935;42.660;23.342;2023-04-24T04:01:47;65502.94;;;-143.54;100.00
8049;BME280;20935;42.660;23.342;2023-04-24T04:04:32;65502.94;;;-143.54;100.00
8049;BME280;20935;42.660;23.342;2023-04-24T04:07:20;65502.94;;;-143.54;100.00
8049;BME280;20935;42.660;23.342;2023-04-24T04:10:10;65502.94;;;-143.54;100.00
8049;BME280;20935;42.660;23.342;2023-04-24T04:12:55;65502.94;;;-143.54;100.00
8049;BME280;20935;42.660;23.342;2023-04-24T04:15:41;65502.94;;;-143.54;100.00
8049;BME280;20935;42.660;23.342;2023-04-24T04:18:26;65502.94;;;-143.54;100.00
8049;BME280;20935;42.660;23.342;2023-04-24T04:21:11;65502.94;;;-143.54;100.00
8049;BME280;20935;42.660;23.342;2023-04-24T04:23:57;65502.94;;;-143.54;100.00
8049;BME280;20935;42.660;23.342;2023-04-24T04:26:43;65502.94;;;-143.54;100.00
8049;BME280;20935;42.660;23.342;2023-04-24T04:29:30;65502.94;;;-143.54;100.00
8049;BME280;20935;42.660;23.342;2023-04-24T04:32:17;65502.94;;;-143.54;100.00
8049;BME280;20935;42.660;23.342;2023-04-24T04:35:03;65502.94;;;-143.54;100.00
8049;BME280;20935;42.660;23.342;2023-04-24T04:37:48;65502.94;;;-143.54;100.00
8049;BME280;20935;42.660;23.342;2023-04-24T04:40:35;65502.94;;;-143.54;100.00
8049;BME280;20935;42.660;23.342;2023-04-24T04:43:22;65502.94;;;-143.54;100.00
8049;BME280;20935;42.660;23.342;2023-04-24T04:46:08;65502.94;;;-143.54;100.00
8049;BME280;20935;42.660;23.342;2023-04-24T04:48:55;65502.94;;;-143.54;100.00
8049;BME280;20935;42.660;23.342;2023-04-24T04:51:40;65502.94;;;-143.54;100.00
8049;BME280;20935;42.660;23.342;2023-04-24T04:54:26;65502.94;;;-143.54;100.00
8049;BME280;20935;42.660;23.342;2023-04-24T04:57:11;65502.94;;;-143.54;100.00
8049;BME280;20935;42.660;23.342;2023-04-24T04:59:58;65502.94;;;-143.54;100.00
8049;BME280;20935;42.660;23.342;2023-04-24T05:02:44;65502.94;;;-143.54;100.00
8049;BME280;20935;42.660;23.342;2023-04-24T05:05:29;65502.94;;;-143.54;100.00
8049;BME280;20935;42.660;23.342;2023-04-24T05:08:15;65502.94;;;-143.54;100.00
8049;BME280;20935;42.660;23.342;2023-04-24T05:11:00;65502.94;;;-143.54;100.00
8049;BME280;20935;42.660;23.342;2023-04-24T05:13:45;65502.94;;;-143.54;100.00
8049;BME280;20935;42.660;23.342;2023-04-24T05:16:32;65502.94;;;-143.54;100.00
8049;BME280;20935;42.660;23.342;2023-04-24T05:19:18;65502.94;;;-143.54;100.00
8049;BME280;20935;42.660;23.342;2023-04-24T05:22:03;65502.94;;;-143.54;100.00
8049;BME280;20935;42.660;23.342;2023-04-24T05:24:50;65502.94;;;-143.54;100.00
8049;BME280;20935;42.660;23.342;2023-04-24T06:40:23;94478.91;;;14.95;64.39
8049;BME280;20935;42.660;23.342;2023-04-24T06:43:09;94484.22;;;15.65;59.99
8049;BME280;20935;42.660;23.342;2023-04-24T06:45:55;94478.06;;;15.77;58.45
8049;BME280;20935;42.660;23.342;2023-04-24T06:48:41;94482.47;;;15.46;59.19
8049;BME280;20935;42.660;23.342;2023-04-24T06:51:26;94480.13;;;15.61;59.39
8049;BME280;20935;42.660;23.342;2023-04-24T06:54:12;94483.84;;;14.55;63.55
8049;BME280;20935;42.660;23.342;2023-04-24T06:57:00;94474.16;;;15.40;61.05
8049;BME280;20935;42.660;23.342;2023-04-24T06:59:46;94477.88;;;15.84;58.50
8049;BME280;20935;42.660;23.342;2023-04-24T07:02:32;94474.47;;;15.42;59.99
8049;BME280;20935;42.660;23.342;2023-04-24T07:05:17;94472.38;;;15.21;59.95
8049;BME280;20935;42.660;23.342;2023-04-24T07:08:04;94467.19;;;15.56;59.45
8049;BME280;20935;42.660;23.342;2023-04-24T07:10:51;94471.66;;;16.09;58.21
8049;BME280;20935;42.660;23.342;2023-04-24T07:13:37;94469.59;;;16.13;56.94
8049;BME280;20935;42.660;23.342;2023-04-24T07:16:25;94464.69;;;15.86;57.27
8049;BME280;20935;42.660;23.342;2023-04-24T07:19:11;94460.53;;;16.54;56.23
8049;BME280;20935;42.660;23.342;2023-04-24T07:21:56;94464.16;;;17.16;54.00
8049;BME280;20935;42.660;23.342;2023-04-24T07:24:42;94466.94;;;16.82;54.83
8049;BME280;20935;42.660;23.342;2023-04-24T07:27:27;94464.38;;;16.31;55.72
8049;BME280;20935;42.660;23.342;2023-04-24T07:30:15;94465.25;;;17.50;52.96
8049;BME280;20935;42.660;23.342;2023-04-24T07:33:00;94458.81;;;17.25;52.99
8049;BME280;20935;42.660;23.342;2023-04-24T07:35:45;94452.78;;;17.00;54.00
8049;BME280;20935;42.660;23.342;2023-04-24T07:38:31;94449.72;;;17.72;52.28
8049;BME280;20935;42.660;23.342;2023-04-24T07:42:16;94449.75;;;17.50;52.26
8049;BME280;20935;42.660;23.342;2023-04-24T07:45:02;94448.44;;;17.55;52.43
8049;BME280;20935;42.660;23.342;2023-04-24T07:47:48;94455.19;;;17.28;53.12
8049;BME280;20935;42.660;23.342;2023-04-24T07:50:33;94445.94;;;18.27;50.47
8049;BME280;20935;42.660;23.342;2023-04-24T07:53:19;94439.25;;;17.92;50.77
8049;BME280;20935;42.660;23.342;2023-04-24T07:56:05;94441.50;;;17.54;52.31
8049;BME280;20935;42.660;23.342;2023-04-24T07:58:52;94437.00;;;17.91;51.18
8049;BME280;20935;42.660;23.342;2023-04-24T08:01:37;94439.72;;;17.60;51.79
8049;BME280;20935;42.660;23.342;2023-04-24T08:04:23;94436.69;;;17.89;51.01
8049;BME280;20935;42.660;23.342;2023-04-24T08:07:08;94437.34;;;18.20;50.98
8049;BME280;20935;42.660;23.342;2023-04-24T08:09:54;94431.16;;;18.19;50.78
8049;BME280;20935;42.660;23.342;2023-04-24T08:12:39;94434.69;;;17.49;52.15
8049;BME280;20935;42.660;23.342;2023-04-24T08:15:27;94429.97;;;18.20;51.01
8049;BME280;20935;42.660;23.342;2023-04-24T08:18:12;94421.25;;;18.25;51.26
8049;BME280;20935;42.660;23.342;2023-04-24T08:20:59;94426.38;;;18.33;50.30
8049;BME280;20935;42.660;23.342;2023-04-24T08:23:45;94422.34;;;18.55;50.64
8049;BME280;20935;42.660;23.342;2023-04-24T08:26:31;94416.28;;;18.88;49.22
8049;BME280;20935;42.660;23.342;2023-04-24T08:29:17;94405.84;;;19.13;48.91
8049;BME280;20935;42.660;23.342;2023-04-24T08:32:03;94409.81;;;18.76;49.36
8049;BME280;20935;42.660;23.342;2023-04-24T08:34:49;94411.66;;;18.61;50.57
8049;BME280;20935;42.660;23.342;2023-04-24T08:37:36;94404.53;;;18.27;50.30
8049;BME280;20935;42.660;23.342;2023-04-24T08:40:27;94402.84;;;18.20;50.80
8049;BME280;20935;42.660;23.342;2023-04-24T08:43:13;94401.28;;;19.19;49.44
8049;BME280;20935;42.660;23.342;2023-04-24T08:46:03;94397.56;;;17.99;51.09
8049;BME280;20935;42.660;23.342;2023-04-24T08:48:52;94397.31;;;18.79;49.47
8049;BME280;20935;42.660;23.342;2023-04-24T08:51:37;94387.06;;;18.73;49.24
8049;BME280;20935;42.660;23.342;2023-04-24T08:54:24;94393.75;;;19.23;49.78
8049;BME280;20935;42.660;23.342;2023-04-24T08:57:10;94385.09;;;19.43;49.31
8049;BME280;20935;42.660;23.342;2023-04-24T08:59:58;94372.81;;;19.57;48.70
8049;BME280;20935;42.660;23.342;2023-04-24T09:02:43;94374.03;;;19.56;49.55
8049;BME280;20935;42.660;23.342;2023-04-24T09:05:32;94375.16;;;20.30;46.73
8049;BME280;20935;42.660;23.342;2023-04-24T09:08:19;94371.56;;;19.25;49.32
8049;BME280;20935;42.660;23.342;2023-04-24T09:11:04;94366.25;;;19.73;47.96
8049;BME280;20935;42.660;23.342;2023-04-24T09:13:52;94354.97;;;18.72;49.04
8049;BME280;20935;42.660;23.342;2023-04-24T09:16:38;94365.81;;;18.17;50.02
8049;BME280;20935;42.660;23.342;2023-04-24T09:19:24;94357.63;;;19.50;48.66
8049;BME280;20935;42.660;23.342;2023-04-24T09:22:10;94351.75;;;19.43;48.43
8049;BME280;20935;42.660;23.342;2023-04-24T09:25:03;94343.63;;;19.34;47.74
8049;BME280;20935;42.660;23.342;2023-04-24T09:27:53;94339.06;;;19.07;48.76
8049;BME280;20935;42.660;23.342;2023-04-24T09:30:39;94339.94;;;19.79;47.64
8049;BME280;20935;42.660;23.342;2023-04-24T09:33:24;94334.06;;;20.42;47.68
8049;BME280;20935;42.660;23.342;2023-04-24T09:36:09;94329.75;;;19.64;47.52
8049;BME280;20935;42.660;23.342;2023-04-24T09:38:59;94329.72;;;19.97;48.01
8049;BME280;20935;42.660;23.342;2023-04-24T09:41:46;94322.72;;;20.05;47.20
8049;BME280;20935;42.660;23.342;2023-04-24T09:44:34;94320.38;;;20.13;47.77
8049;BME280;20935;42.660;23.342;2023-04-24T09:47:19;94331.56;;;20.68;45.70
8049;BME280;20935;42.660;23.342;2023-04-24T09:50:13;94332.13;;;20.87;45.49
8049;BME280;20935;42.660;23.342;2023-04-24T09:53:02;94325.88;;;21.60;44.39
8049;BME280;20935;42.660;23.342;2023-04-24T09:55:49;94318.16;;;20.94;45.50
8049;BME280;20935;42.660;23.342;2023-04-24T09:58:35;94323.31;;;20.77;46.48
8049;BME280;20935;42.660;23.342;2023-04-24T10:01:30;94311.13;;;21.02;46.04
8049;BME280;20935;42.660;23.342;2023-04-24T10:04:17;94312.97;;;21.10;44.37
8049;BME280;20935;42.660;23.342;2023-04-24T10:07:03;94307.72;;;21.07;45.25
8049;BME280;20935;42.660;23.342;2023-04-24T10:09:51;94297.53;;;21.72;43.49
8049;BME280;20935;42.660;23.342;2023-04-24T10:12:38;94287.66;;;22.15;44.30
8049;BME280;20935;42.660;23.342;2023-04-24T10:15:24;94294.88;;;21.57;43.52
8049;BME280;20935;42.660;23.342;2023-04-24T10:18:10;94290.38;;;21.74;43.21
8049;BME280;20935;42.660;23.342;2023-04-24T10:20:56;94270.03;;;21.55;42.39
8049;BME280;20935;42.660;23.342;2023-04-24T10:23:44;94272.47;;;22.08;42.85
8049;BME280;20935;42.660;23.342;2023-04-24T10:26:31;94262.72;;;22.73;41.29
8049;BME280;20935;42.660;23.342;2023-04-24T10:29:18;94262.69;;;22.22;41.67
8049;BME280;20935;42.660;23.342;2023-04-24T10:32:06;94261.56;;;22.60;41.88
8049;BME280;20935;42.660;23.342;2023-04-24T10:34:54;94253.06;;;22.52;41.66
8049;BME280;20935;42.660;23.342;2023-04-24T10:37:43;94253.28;;;22.48;41.69
8049;BME280;20935;42.660;23.342;2023-04-24T10:40:31;94245.19;;;22.85;42.04
8049;BME280;20935;42.660;23.342;2023-04-24T10:43:18;94239.53;;;21.91;42.40
8049;BME280;20935;42.660;23.342;2023-04-24T10:46:06;94242.34;;;21.22;44.36
8049;BME280;20935;42.660;23.342;2023-04-24T10:48:53;94239.00;;;20.97;44.62
8049;BME280;20935;42.660;23.342;2023-04-24T10:51:47;94233.16;;;22.46;42.42
8049;BME280;20935;42.660;23.342;2023-04-24T10:54:35;94228.69;;;23.06;40.53
8049;BME280;20935;42.660;23.342;2023-04-24T10:57:28;94229.31;;;23.69;41.49
8049;BME280;20935;42.660;23.342;2023-04-24T11:00:18;94220.56;;;23.54;39.97
8049;BME280;20935;42.660;23.342;2023-04-24T11:03:06;94220.06;;;23.13;40.46
8049;BME280;20935;42.660;23.342;2023-04-24T11:05:55;94214.66;;;23.24;39.74
8049;BME280;20935;42.660;23.342;2023-04-24T11:08:43;94201.63;;;22.71;39.98
8049;BME280;20935;42.660;23.342;2023-04-24T11:11:30;94204.84;;;21.92;40.53
8049;BME280;20935;42.660;23.342;2023-04-24T11:14:15;94198.75;;;21.42;40.64
8049;BME280;20935;42.660;23.342;2023-04-24T11:17:01;94196.31;;;21.24;41.45
8049;BME280;20935;42.660;23.342;2023-04-24T11:19:50;94202.50;;;20.89;41.38
8049;BME280;20935;42.660;23.342;2023-04-24T11:22:38;94223.91;;;20.67;41.77
8049;BME280;20935;42.660;23.342;2023-04-24T11:25:23;94234.38;;;20.15;43.32
8049;BME280;20935;42.660;23.342;2023-04-24T11:28:14;94247.19;;;19.86;44.68
8049;BME280;20935;42.660;23.342;2023-04-24T11:31:34;94235.75;;;19.01;47.41
8049;BME280;20935;42.660;23.342;2023-04-24T11:34:20;94238.38;;;19.19;48.80
8049;BME280;20935;42.660;23.342;2023-04-24T11:37:08;94252.25;;;19.21;49.59
8049;BME280;20935;42.660;23.342;2023-04-24T11:39:56;94251.69;;;19.17;49.64
8049;BME280;20935;42.660;23.342;2023-04-24T11:42:43;94259.13;;;19.32;48.33
8049;BME280;20935;42.660;23.342;2023-04-24T11:45:30;94241.75;;;19.14;46.96
8049;BME280;20935;42.660;23.342;2023-04-24T11:48:18;94242.00;;;18.84;47.95
8049;BME280;20935;42.660;23.342;2023-04-24T11:51:04;94246.81;;;18.89;50.05
8049;BME280;20935;42.660;23.342;2023-04-24T11:53:51;94243.00;;;18.95;52.96
8049;BME280;20935;42.660;23.342;2023-04-24T11:56:36;94229.50;;;19.43;54.75
8049;BME280;20935;42.660;23.342;2023-04-24T11:59:22;94231.78;;;19.35;54.05
8049;BME280;20935;42.660;23.342;2023-04-24T12:02:07;94230.06;;;19.94;51.33
8049;BME280;20935;42.660;23.342;2023-04-24T12:04:53;94220.53;;;20.43;49.72
8049;BME280;20935;42.660;23.342;2023-04-24T12:07:41;94221.63;;;20.07;49.33
8049;BME280;20935;42.660;23.342;2023-04-24T12:10:30;94215.47;;;19.68;50.43
8049;BME280;20935;42.660;23.342;2023-04-24T12:13:17;94211.22;;;20.05;49.00
8049;BME280;20935;42.660;23.342;2023-04-24T12:16:03;94213.63;;;20.42;49.27
8049;BME280;20935;42.660;23.342;2023-04-24T12:18:51;94211.09;;;20.53;47.78
8049;BME280;20935;42.660;23.342;2023-04-24T12:21:36;94219.78;;;20.28;48.34
8049;BME280;20935;42.660;23.342;2023-04-24T12:24:21;94207.38;;;20.12;48.50
8049;BME280;20935;42.660;23.342;2023-04-24T12:27:19;94207.72;;;20.29;47.80
8049;BME280;20935;42.660;23.342;2023-04-24T12:30:05;94196.81;;;20.29;46.98
8049;BME280;20935;42.660;23.342;2023-04-24T12:32:57;94188.53;;;20.23;47.32
8049;BME280;20935;42.660;23.342;2023-04-24T12:35:43;94176.53;;;19.86;47.33
8049;BME280;20935;42.660;23.342;2023-04-24T12:38:29;94183.09;;;20.08;47.41
8049;BME280;20935;42.660;23.342;2023-04-24T12:41:24;94178.50;;;20.58;47.25
8049;BME280;20935;42.660;23.342;2023-04-24T12:44:11;94167.50;;;20.68;47.57
8049;BME280;20935;42.660;23.342;2023-04-24T12:46:57;94160.81;;;20.34;47.01
8049;BME280;20935;42.660;23.342;2023-04-24T12:49:43;94154.44;;;20.37;46.95
8049;BME280;20935;42.660;23.342;2023-04-24T12:52:29;94151.69;;;20.07;47.26
8049;BME280;20935;42.660;23.342;2023-04-24T12:55:15;94148.13;;;20.01;47.95
8049;BME280;20935;42.660;23.342;2023-04-24T12:58:01;94134.50;;;19.57;48.20
8049;BME280;20935;42.660;23.342;2023-04-24T13:00:48;94123.00;;;19.77;48.10
8049;BME280;20935;42.660;23.342;2023-04-24T13:03:34;94118.97;;;20.16;47.53
8049;BME280;20935;42.660;23.342;2023-04-24T13:06:19;94112.88;;;19.78;48.39
8049;BME280;20935;42.660;23.342;2023-04-24T13:09:05;94113.53;;;19.73;48.98
8049;BME280;20935;42.660;23.342;2023-04-24T13:11:50;94104.78;;;20.27;47.73
8049;BME280;20935;42.660;23.342;2023-04-24T13:14:36;94091.63;;;20.90;46.99
8049;BME280;20935;42.660;23.342;2023-04-24T13:17:23;94088.91;;;20.90;47.19
8049;BME280;20935;42.660;23.342;2023-04-24T13:20:09;94089.44;;;21.34;46.00
8049;BME280;20935;42.660;23.342;2023-04-24T13:22:54;94091.00;;;21.67;45.20
8049;BME280;20935;42.660;23.342;2023-04-24T13:25:40;94088.13;;;21.76;44.84
8049;BME280;20935;42.660;23.342;2023-04-24T13:28:26;94090.63;;;21.99;45.75
8049;BME280;20935;42.660;23.342;2023-04-24T13:31:11;94088.84;;;21.96;46.14
8049;BME280;20935;42.660;23.342;2023-04-24T13:33:58;94079.38;;;21.92;46.74
8049;BME280;20935;42.660;23.342;2023-04-24T13:36:44;94075.41;;;21.41;47.12
8049;BME280;20935;42.660;23.342;2023-04-24T13:39:30;94068.66;;;22.14;45.50
8049;BME280;20935;42.660;23.342;2023-04-24T13:42:16;94061.41;;;22.42;45.33
8049;BME280;20935;42.660;23.342;2023-04-24T13:45:03;94058.44;;;22.40;44.44
8049;BME280;20935;42.660;23.342;2023-04-24T13:47:49;94051.72;;;22.36;44.30
8049;BME280;20935;42.660;23.342;2023-04-24T13:50:36;94050.72;;;22.76;44.96
8049;BME280;20935;42.660;23.342;2023-04-24T13:53:21;94043.75;;;22.75;44.67
8049;BME280;20935;42.660;23.342;2023-04-24T13:56:07;94032.94;;;22.91;42.52
8049;BME280;20935;42.660;23.342;2023-04-24T13:58:52;94037.19;;;23.09;42.89
8049;BME280;20935;42.660;23.342;2023-04-24T14:01:38;94021.44;;;22.82;42.56
8049;BME280;20935;42.660;23.342;2023-04-24T14:04:24;94011.91;;;23.20;41.40
8049;BME280;20935;42.660;23.342;2023-04-24T14:07:10;94019.28;;;22.97;43.19
8049;BME280;20935;42.660;23.342;2023-04-24T14:09:56;94021.72;;;23.49;43.44
8049;BME280;20935;42.660;23.342;2023-04-24T14:12:41;94015.75;;;23.56;43.41
8049;BME280;20935;42.660;23.342;2023-04-24T14:15:27;94020.00;;;23.84;43.16
8049;BME280;20935;42.660;23.342;2023-04-24T14:18:14;94016.38;;;23.23;43.99
8049;BME280;20935;42.660;23.342;2023-04-24T14:20:59;94014.28;;;23.82;44.47
8049;BME280;20935;42.660;23.342;2023-04-24T14:23:47;94017.75;;;23.83;43.83
8049;BME280;20935;42.660;23.342;2023-04-24T14:26:32;94019.75;;;24.10;43.81
8049;BME280;20935;42.660;23.342;2023-04-24T14:29:18;94023.84;;;23.22;46.03
8049;BME280;20935;42.660;23.342;2023-04-24T14:32:04;94018.72;;;22.02;46.45
8049;BME280;20935;42.660;23.342;2023-04-24T14:34:50;94016.94;;;21.42;49.35
8049;BME280;20935;42.660;23.342;2023-04-24T14:37:36;94022.59;;;20.73;49.97
8049;BME280;20935;42.660;23.342;2023-04-24T14:40:23;94011.94;;;20.20;49.92
8049;BME280;20935;42.660;23.342;2023-04-24T14:43:08;93998.34;;;20.34;50.20
8049;BME280;20935;42.660;23.342;2023-04-24T14:45:54;94007.59;;;19.93;50.21
8049;BME280;20935;42.660;23.342;2023-04-24T14:48:40;94007.31;;;19.91;50.59
8049;BME280;20935;42.660;23.342;2023-04-24T14:51:25;94009.97;;;19.85;51.64
8049;BME280;20935;42.660;23.342;2023-04-24T14:54:11;94016.81;;;19.66;51.39
8049;BME280;20935;42.660;23.342;2023-04-24T14:56:58;94018.97;;;18.94;51.38
8049;BME280;20935;42.660;23.342;2023-04-24T14:59:43;94018.69;;;18.92;51.55
8049;BME280;20935;42.660;23.342;2023-04-24T15:02:29;94019.28;;;18.72;54.26
8049;BME280;20935;42.660;23.342;2023-04-24T15:05:14;94005.06;;;18.30;60.17
8049;BME280;20935;42.660;23.342;2023-04-24T15:08:02;94001.72;;;18.11;61.43
8049;BME280;20935;42.660;23.342;2023-04-24T15:10:48;94000.06;;;17.72;65.00
8049;BME280;20935;42.660;23.342;2023-04-24T15:13:35;93997.44;;;17.87;64.94
8049;BME280;20935;42.660;23.342;2023-04-24T15:16:21;93996.97;;;17.88;63.86
8049;BME280;20935;42.660;23.342;2023-04-24T15:19:06;93995.81;;;17.80;66.33
8049;BME280;20935;42.660;23.342;2023-04-24T15:21:52;94001.81;;;17.84;67.07
8049;BME280;20935;42.660;23.342;2023-04-24T15:24:37;94006.94;;;17.82;67.51
8049;BME280;20935;42.660;23.342;2023-04-24T15:27:22;93996.19;;;17.97;66.00
8049;BME280;20935;42.660;23.342;2023-04-24T15:30:11;93989.41;;;18.01;65.20
8049;BME280;20935;42.660;23.342;2023-04-24T15:32:57;93985.88;;;17.86;65.66
8049;BME280;20935;42.660;23.342;2023-04-24T15:35:42;93984.53;;;17.81;64.88
8049;BME280;20935;42.660;23.342;2023-04-24T15:38:28;93977.44;;;17.84;65.83
8049;BME280;20935;42.660;23.342;2023-04-24T15:41:13;93981.88;;;17.96;64.06